Sunol, Nebraska
Current Conditions -  °F | °C
As of 4:53 AM on Monday 22 Dec 2014 (Local Time) from KSNY Reporting Station
Unknown Precip Unknown Precip  
Wind Chill: 22°   Ceiling: 6500
Heat Index: 35°   Visibility: 9mi
Dew Point: 26°   Wind: 28mph
Humidity: 70%   Direction: 330°NNW
Pressure: 29.66"   Gusts: 35mph
Location:  41.2256°N, 102.681°W
Report Text: KSNY 221153Z AUTO 33024G30KT 9SM UP BKN065 02/M03 A2966 RMK AO2 PK WND 33032/1123 UPB52 SLP048 P0000 60000 T00171033 10028 20011 53007
Loading
Personal Weather Stations






























Interactive Weather Map New forecast layout! Learn more

10-Day Weather Forecast

Advertisements
Track Severe Weather on mobile